createdAt,value
2022-08-14T00:01:16.646Z,69.78
2022-08-14T00:06:29.089Z,66.48
2022-08-14T00:11:33.634Z,65.41
2022-08-14T00:16:41.251Z,65.18
2022-08-14T00:21:47.963Z,67.21
2022-08-14T00:26:54.908Z,68.61
2022-08-14T00:31:57.726Z,68.14
2022-08-14T00:37:00.581Z,71.29
2022-08-14T00:42:07.576Z,73.68
2022-08-14T00:47:24.987Z,74.42
2022-08-14T00:52:32.007Z,71.97
2022-08-14T00:57:38.683Z,73.19
2022-08-14T01:02:45.191Z,73.18
2022-08-14T01:07:58.479Z,75.74
2022-08-14T01:13:02.919Z,75.66
2022-08-14T01:18:23.828Z,74.49
2022-08-14T01:23:46.463Z,75.86
2022-08-14T01:28:57.639Z,76.56
2022-08-14T01:35:17.903Z,77.11
2022-08-14T01:39:27.731Z,76.89
2022-08-14T01:44:37.949Z,78.43
2022-08-14T01:49:46.197Z,79.53
2022-08-14T01:55:03.758Z,79.50
2022-08-14T02:00:16.885Z,79.25
2022-08-14T02:05:21.399Z,79.39
2022-08-14T02:10:29.042Z,78.59
2022-08-14T02:15:31.883Z,78.67
2022-08-14T02:20:36.036Z,80.32
2022-08-14T02:25:40.405Z,81.16
2022-08-14T02:30:43.238Z,81.64
2022-08-14T02:35:53.241Z,81.56
2022-08-14T02:41:02.885Z,80.37
2022-08-14T02:46:12.855Z,78.63
2022-08-14T02:51:15.922Z,78.20
2022-08-14T02:56:30.077Z,80.48
2022-08-14T03:01:50.369Z,81.59
2022-08-14T03:06:58.190Z,80.02
2022-08-14T03:12:13.128Z,84.21
2022-08-14T03:17:31.714Z,83.34
2022-08-14T03:22:43.704Z,82.36
2022-08-14T03:27:58.644Z,83.31
2022-08-14T03:33:02.720Z,83.29
2022-08-14T03:39:11.617Z,82.64
2022-08-14T03:43:33.130Z,84.59
2022-08-14T03:48:40.306Z,86.15
2022-08-14T03:53:45.066Z,88.55
2022-08-14T03:58:52.482Z,89.06
2022-08-14T04:03:57.971Z,90.74
2022-08-14T04:09:00.931Z,92.29
2022-08-14T07:38:37.541Z,67.11
2022-08-14T07:43:41.364Z,66.78
2022-08-14T07:48:44.455Z,68.17
2022-08-14T07:53:56.780Z,64.90
2022-08-14T07:59:00.125Z,63.89
2022-08-14T08:04:11.007Z,64.25
2022-08-14T08:09:31.743Z,62.46
2022-08-14T08:14:56.037Z,62.40
2022-08-14T08:19:58.447Z,61.30
2022-08-14T08:25:04.862Z,59.82
2022-08-14T08:30:16.618Z,58.35
2022-08-14T08:35:23.444Z,57.88
2022-08-14T08:40:32.556Z,56.76
2022-08-14T08:45:37.192Z,58.10
2022-08-14T08:55:46.674Z,56.73
2022-08-14T09:00:54.323Z,54.39
2022-08-14T09:06:01.225Z,53.84
2022-08-14T09:11:19.751Z,53.64
2022-08-14T09:16:26.389Z,53.49
2022-08-14T09:21:31.145Z,52.88
2022-08-14T09:26:37.150Z,52.42
2022-08-14T09:31:52.773Z,51.65
2022-08-14T09:37:14.743Z,50.82
2022-08-14T09:42:36.892Z,50.90
2022-08-14T09:47:51.942Z,51.16
2022-08-14T09:52:58.246Z,49.04
2022-08-14T09:58:15.085Z,50.03
2022-08-14T10:03:30.292Z,49.48
2022-08-14T10:08:51.215Z,48.32
2022-08-14T10:14:02.403Z,48.55
2022-08-14T10:19:09.583Z,50.08
2022-08-14T10:24:17.438Z,48.34
2022-08-14T10:29:32.392Z,46.63
2022-08-14T10:34:38.717Z,47.05
2022-08-14T10:39:51.237Z,47.71
2022-08-14T10:45:20.381Z,46.70
2022-08-14T10:50:30.854Z,47.42
2022-08-14T10:55:39.699Z,45.58
2022-08-14T11:00:58.342Z,44.86
2022-08-14T11:06:01.794Z,43.93
2022-08-14T11:11:07.100Z,43.08
2022-08-14T11:16:13.914Z,42.73
2022-08-14T11:21:22.847Z,43.93
2022-08-14T11:26:30.252Z,42.96
2022-08-14T11:31:38.886Z,41.02
2022-08-14T11:37:09.529Z,41.04
2022-08-14T11:42:55.771Z,40.08
2022-08-14T11:47:35.315Z,39.84
2022-08-14T11:52:50.821Z,40.86
2022-08-14T11:58:05.157Z,39.05
2022-08-14T12:03:14.307Z,39.65
2022-08-14T12:08:24.650Z,38.64
2022-08-14T12:13:34.679Z,38.46
2022-08-14T12:18:41.681Z,37.59
2022-08-14T12:23:50.624Z,36.46
2022-08-14T12:28:59.679Z,38.96
2022-08-14T12:34:10.193Z,39.56
2022-08-14T12:39:20.300Z,39.55
2022-08-14T12:44:31.007Z,39.74
2022-08-14T12:49:35.248Z,38.39
2022-08-14T12:54:56.077Z,35.42
2022-08-14T13:00:23.027Z,33.17
2022-08-14T13:05:30.098Z,33.81
2022-08-14T13:10:46.923Z,31.57
2022-08-14T13:15:55.962Z,29.73
2022-08-14T13:21:05.485Z,33.92
2022-08-14T13:26:08.560Z,35.74
2022-08-14T13:31:14.164Z,32.26
2022-08-14T13:36:23.897Z,28.95
2022-08-14T13:41:31.707Z,29.62
2022-08-14T13:46:39.350Z,28.87
2022-08-14T13:51:52.948Z,27.96
2022-08-14T13:56:57.210Z,27.01
2022-08-14T14:02:06.854Z,26.45
2022-08-14T14:07:14.565Z,28.13
2022-08-14T14:12:37.533Z,28.97
2022-08-14T14:17:44.288Z,29.05
2022-08-14T14:23:01.584Z,27.83
2022-08-14T14:28:06.095Z,28.38
2022-08-14T14:33:42.481Z,27.39
2022-08-14T14:38:40.827Z,26.25
2022-08-14T14:43:51.661Z,27.57
2022-08-14T14:48:54.909Z,28.16
2022-08-14T14:54:00.770Z,28.00
2022-08-14T14:59:04.619Z,27.09
2022-08-14T15:04:20.111Z,26.06
2022-08-14T15:09:25.120Z,26.54
2022-08-14T15:14:55.785Z,28.45
2022-08-14T15:19:56.416Z,28.83
2022-08-14T15:25:01.245Z,29.19
2022-08-14T15:30:06.496Z,30.03
2022-08-14T15:35:11.822Z,30.92
2022-08-14T15:40:22.438Z,27.61
2022-08-14T15:45:25.598Z,25.23
2022-08-14T15:50:30.349Z,25.04
2022-08-14T15:55:34.738Z,28.39
2022-08-14T16:00:56.008Z,30.28
2022-08-14T16:05:59.862Z,32.17
2022-08-14T16:11:09.141Z,31.91
2022-08-14T16:16:47.243Z,32.34
2022-08-14T16:22:02.256Z,33.57
2022-08-14T16:27:08.125Z,33.69
2022-08-14T16:32:32.667Z,32.90
2022-08-14T16:37:41.286Z,34.05
2022-08-14T16:43:04.358Z,33.30
2022-08-14T16:48:55.087Z,33.57
2022-08-14T16:53:37.214Z,33.74
2022-08-14T16:58:41.646Z,34.54
2022-08-14T17:03:56.584Z,34.50
2022-08-14T17:08:59.318Z,34.23
2022-08-14T17:14:04.984Z,34.60
2022-08-14T17:19:14.252Z,34.87
2022-08-14T17:24:58.365Z,35.41
2022-08-14T17:29:56.087Z,34.94
2022-08-14T17:35:01.882Z,36.18
2022-08-14T17:40:15.146Z,37.44
2022-08-14T17:45:27.103Z,35.87
2022-08-14T17:51:00.258Z,37.89
2022-08-14T17:56:04.744Z,37.90
2022-08-14T18:01:14.165Z,38.69
2022-08-14T18:06:39.839Z,39.48
2022-08-14T18:11:46.275Z,39.65
2022-08-14T18:16:52.803Z,41.06
2022-08-14T18:21:58.124Z,40.16
2022-08-14T18:27:08.694Z,40.79
2022-08-14T18:32:47.266Z,42.28
2022-08-14T18:38:26.306Z,44.00
2022-08-14T18:43:59.384Z,44.52
2022-08-14T18:49:16.242Z,45.40
2022-08-14T18:54:34.337Z,46.45
2022-08-14T18:59:40.417Z,46.53
2022-08-14T19:04:47.455Z,48.76
2022-08-14T19:09:56.325Z,47.90
2022-08-14T19:15:09.056Z,48.96
2022-08-14T19:20:14.481Z,49.21
2022-08-14T19:25:48.931Z,49.35
2022-08-14T19:31:36.932Z,50.29
2022-08-14T19:37:05.318Z,51.63
2022-08-14T19:42:10.472Z,51.92
2022-08-14T19:47:17.859Z,52.53
2022-08-14T19:52:23.712Z,53.56
2022-08-14T19:57:29.043Z,53.17
2022-08-14T20:02:32.129Z,54.93
2022-08-14T20:08:00.270Z,56.23
2022-08-14T20:13:06.139Z,56.48
2022-08-14T20:18:18.309Z,57.00
2022-08-14T20:23:38.403Z,57.12
2022-08-14T20:28:51.562Z,56.02
2022-08-14T20:34:06.167Z,56.53
2022-08-14T20:39:15.298Z,57.10
2022-08-14T20:44:38.644Z,56.81
2022-08-14T20:49:41.433Z,57.96
2022-08-14T20:54:50.761Z,58.76
2022-08-14T20:59:56.665Z,62.13
2022-08-14T21:05:16.385Z,63.17
2022-08-14T21:10:36.181Z,63.87
2022-08-14T21:15:39.706Z,61.74
2022-08-14T21:20:46.183Z,61.18
2022-08-14T21:25:48.968Z,62.50
2022-08-14T21:30:54.953Z,63.77
2022-08-14T21:36:07.529Z,64.72
2022-08-14T21:41:42.850Z,62.50
2022-08-14T21:46:47.570Z,62.32
2022-08-14T21:51:59.964Z,62.47
2022-08-14T21:57:13.661Z,64.32
2022-08-14T22:02:32.598Z,65.08
2022-08-14T22:07:38.881Z,69.05
2022-08-14T22:12:58.630Z,70.04
2022-08-14T22:18:04.084Z,70.95
2022-08-14T22:23:12.597Z,70.83
2022-08-14T22:28:25.419Z,71.34
2022-08-14T22:33:30.865Z,68.51
2022-08-14T22:38:39.025Z,66.50
2022-08-14T22:43:54.607Z,68.90
2022-08-14T22:48:57.748Z,65.75
2022-08-14T22:54:01.937Z,66.26
2022-08-14T22:59:09.835Z,66.87
2022-08-14T23:04:35.667Z,65.62
2022-08-14T23:09:56.654Z,68.34
2022-08-14T23:15:00.914Z,69.96
2022-08-14T23:20:04.998Z,70.79
2022-08-14T23:25:12.269Z,72.53
2022-08-14T23:30:31.458Z,72.94
2022-08-14T23:35:41.761Z,73.56
2022-08-14T23:41:08.774Z,70.21
2022-08-14T23:46:14.969Z,69.49
2022-08-14T23:51:20.154Z,68.88
2022-08-14T23:56:30.200Z,68.84
